createdAt,value
2023-02-09T02:21:09.896Z,21.70
2023-02-09T02:23:48.603Z,26.20
2023-02-09T02:26:55.580Z,26.50
2023-02-09T02:29:48.633Z,25.40
2023-02-09T02:32:31.749Z,27.90
2023-02-09T02:35:19.904Z,25.70
2023-02-09T02:38:00.438Z,28.80
2023-02-09T02:40:49.926Z,26.30
2023-02-09T02:43:25.650Z,25.50
2023-02-09T02:46:04.896Z,22.50
2023-02-09T02:48:38.486Z,24.50
2023-02-09T02:51:10.599Z,27.90
2023-02-09T02:53:41.699Z,31.70
2023-02-09T02:56:15.744Z,30.50
2023-02-09T02:58:44.959Z,27.60
2023-02-09T03:01:15.101Z,24.20
2023-02-09T03:03:43.977Z,26.30
2023-02-09T03:06:12.361Z,25.10
2023-02-09T03:08:57.073Z,25.50
2023-02-09T03:11:30.787Z,30.10
2023-02-09T03:14:14.204Z,37.90
2023-02-09T03:17:07.049Z,31.20
2023-02-09T03:20:01.649Z,39.10
2023-02-09T03:22:37.294Z,41.50
2023-02-09T03:25:14.253Z,58.40
2023-02-09T03:27:48.216Z,57.20
2023-02-09T03:30:16.797Z,56.80
2023-02-09T03:32:46.088Z,37.30
2023-02-09T03:35:16.420Z,36.50
2023-02-09T03:37:44.766Z,37.20
2023-02-09T03:40:13.689Z,36.10
2023-02-09T03:42:42.057Z,30.70
2023-02-09T03:45:10.224Z,36.90
2023-02-09T03:47:38.501Z,37.50
2023-02-09T03:50:07.710Z,36.70
2023-02-09T03:52:35.983Z,39.70
2023-02-09T03:55:05.432Z,46.40
2023-02-09T03:57:33.626Z,43.50
2023-02-09T04:00:03.631Z,36.20
2023-02-09T04:02:40.423Z,37.60
2023-02-09T04:05:09.067Z,38.00
2023-02-09T04:07:41.879Z,36.00
2023-02-09T04:10:11.139Z,36.10
2023-02-09T04:12:39.533Z,37.00
2023-02-09T04:15:09.763Z,33.00
2023-02-09T04:17:38.872Z,38.20
2023-02-09T04:20:07.763Z,37.10
2023-02-09T04:22:36.823Z,40.10
2023-02-09T04:25:07.575Z,39.70
2023-02-09T04:27:35.938Z,41.60
2023-02-09T04:30:04.502Z,41.80
2023-02-09T04:32:32.998Z,42.70
2023-02-09T04:35:02.197Z,44.20
2023-02-09T04:37:30.630Z,44.40
2023-02-09T04:39:58.659Z,41.00
2023-02-09T04:42:26.786Z,37.30
2023-02-09T04:44:55.215Z,50.60
2023-02-09T04:47:23.339Z,49.30
2023-02-09T04:49:51.623Z,58.50
2023-02-09T04:52:19.845Z,53.70
2023-02-09T04:54:47.949Z,52.80
2023-02-09T04:57:34.885Z,53.80
2023-02-09T05:00:03.316Z,52.40
2023-02-09T06:57:04.591Z,40.80
2023-02-09T06:59:32.716Z,47.40
2023-02-09T07:02:00.812Z,51.80
2023-02-09T07:04:29.084Z,47.70
2023-02-09T07:06:57.883Z,42.10
2023-02-09T07:09:26.264Z,38.60
2023-02-09T07:11:55.427Z,37.50
2023-02-09T07:14:23.583Z,35.30
2023-02-09T07:16:51.822Z,36.00
2023-02-09T07:19:21.237Z,31.40
2023-02-09T07:21:49.570Z,29.40
2023-02-09T07:24:18.404Z,19.90
2023-02-09T07:26:46.672Z,17.50
2023-02-09T07:29:14.761Z,16.70
2023-02-09T07:31:43.184Z,14.80
2023-02-09T07:34:11.636Z,16.20
2023-02-09T07:36:40.099Z,14.90
2023-02-09T07:39:08.704Z,15.10
2023-02-09T07:41:37.188Z,16.90
2023-02-09T07:44:05.671Z,18.00
2023-02-09T07:46:34.134Z,16.70
2023-02-09T07:49:02.350Z,16.20
2023-02-09T07:51:32.858Z,18.20
2023-02-09T07:54:02.909Z,12.90
2023-02-09T07:56:31.379Z,17.40
2023-02-09T07:58:59.960Z,17.80
2023-02-09T08:01:28.590Z,19.40
2023-02-09T08:03:57.388Z,19.00
2023-02-09T08:06:43.141Z,18.70
2023-02-09T08:09:14.303Z,19.70
2023-02-09T08:11:45.808Z,15.50
2023-02-09T08:14:18.263Z,14.50
2023-02-09T08:16:46.483Z,17.60
2023-02-09T08:19:19.519Z,18.90
2023-02-09T08:21:48.438Z,17.00
2023-02-09T08:24:17.567Z,19.00
2023-02-09T08:26:45.842Z,20.80
2023-02-09T08:29:14.151Z,19.80
2023-02-09T08:31:44.953Z,22.60
2023-02-09T08:34:18.054Z,19.20
2023-02-09T08:36:46.398Z,19.10
2023-02-09T08:39:14.720Z,19.40
2023-02-09T08:41:45.172Z,18.80
2023-02-09T08:44:14.498Z,21.30
2023-02-09T08:46:43.313Z,20.80
2023-02-09T08:49:11.742Z,19.50
2023-02-09T08:51:40.226Z,21.90
2023-02-09T08:54:09.016Z,22.90
2023-02-09T08:56:38.426Z,22.70
2023-02-09T08:59:07.124Z,21.90
2023-02-09T09:01:35.353Z,23.50
2023-02-09T09:04:04.240Z,22.30
2023-02-09T09:06:32.619Z,25.70
2023-02-09T09:09:01.346Z,27.20
2023-02-09T09:11:29.958Z,25.40
2023-02-09T09:13:58.440Z,26.60
2023-02-09T09:16:26.774Z,23.70
2023-02-09T09:18:55.831Z,25.50
2023-02-09T09:21:24.104Z,27.60
2023-02-09T09:23:52.484Z,32.20
2023-02-09T09:26:21.498Z,26.10
2023-02-09T09:28:51.145Z,29.10
2023-02-09T09:31:19.475Z,26.30
2023-02-09T09:33:48.031Z,23.70
2023-02-09T09:36:16.658Z,27.70
2023-02-09T09:38:45.366Z,29.10
2023-02-09T09:41:23.027Z,25.60
2023-02-09T09:43:51.187Z,28.50
2023-02-09T09:46:21.447Z,28.00
2023-02-09T09:48:54.769Z,29.30
2023-02-09T09:51:29.655Z,26.10
2023-02-09T09:53:58.258Z,27.60
2023-02-09T09:56:27.279Z,26.40
2023-02-09T09:58:55.398Z,22.40
2023-02-09T10:01:23.658Z,19.20
2023-02-09T10:03:52.001Z,18.90
2023-02-09T10:06:21.926Z,20.80
2023-02-09T10:09:10.199Z,21.40
2023-02-09T10:11:42.885Z,20.20
2023-02-09T10:14:11.562Z,19.30
2023-02-09T10:16:40.041Z,20.40
2023-02-09T10:19:21.395Z,19.20
2023-02-09T10:21:49.762Z,19.10
2023-02-09T10:24:24.186Z,17.70
2023-02-09T10:27:14.879Z,17.90
2023-02-09T10:29:44.189Z,15.20
2023-02-09T10:32:39.978Z,15.40
2023-02-09T10:35:35.967Z,13.90
2023-02-09T10:38:04.256Z,18.50
2023-02-09T10:40:33.833Z,19.30
2023-02-09T10:43:03.920Z,18.10
2023-02-09T10:45:40.001Z,18.20
2023-02-09T10:51:01.220Z,14.00
2023-02-09T10:53:40.194Z,15.70
2023-02-09T10:56:22.475Z,15.90
2023-02-09T10:59:14.855Z,16.90
2023-02-09T11:01:43.821Z,16.50
2023-02-09T11:04:20.548Z,16.90
2023-02-09T11:06:55.688Z,17.50
2023-02-09T11:09:34.726Z,14.70
2023-02-09T11:12:03.289Z,14.30
2023-02-09T11:14:34.539Z,15.50
2023-02-09T11:17:14.532Z,16.20
2023-02-09T11:20:13.779Z,13.20
2023-02-09T11:23:10.271Z,13.00
2023-02-09T11:25:46.987Z,14.50
2023-02-09T11:28:30.639Z,12.40
2023-02-09T11:31:08.208Z,11.30
2023-02-09T11:33:51.099Z,11.70
2023-02-09T11:36:41.418Z,13.50
2023-02-09T11:39:17.457Z,13.80
2023-02-09T11:42:25.782Z,15.30
2023-02-09T11:44:57.191Z,11.40
2023-02-09T11:47:32.937Z,13.20
2023-02-09T11:50:02.176Z,14.50
2023-02-09T11:52:37.445Z,11.50
2023-02-09T11:55:28.798Z,12.90
2023-02-09T11:58:12.735Z,12.90
2023-02-09T12:00:53.442Z,12.80
2023-02-09T12:03:26.177Z,11.60
2023-02-09T12:05:54.554Z,10.80
2023-02-09T12:08:49.111Z,11.70
2023-02-09T12:11:48.420Z,10.50
2023-02-09T12:14:23.407Z,10.80
2023-02-09T12:16:58.581Z,13.00
2023-02-09T12:19:37.214Z,12.90
2023-02-09T12:22:34.194Z,12.20
2023-02-09T12:25:05.693Z,11.40
2023-02-09T12:27:38.984Z,11.80
2023-02-09T12:30:41.192Z,12.10
2023-02-09T12:33:25.208Z,12.70
2023-02-09T12:36:09.368Z,11.10
2023-02-09T12:38:57.056Z,11.80
2023-02-09T12:41:41.012Z,10.90
2023-02-09T12:44:10.095Z,10.10
2023-02-09T12:46:44.102Z,11.80
2023-02-09T12:49:12.597Z,9.60
2023-02-09T12:51:46.724Z,10.90
2023-02-09T12:54:40.972Z,10.10
2023-02-09T12:57:14.998Z,9.90
2023-02-09T12:59:52.680Z,9.90
2023-02-09T13:02:39.857Z,11.90
2023-02-09T13:05:17.084Z,13.00
2023-02-09T13:07:53.165Z,11.60
2023-02-09T13:10:26.064Z,12.90
2023-02-09T13:13:10.435Z,13.10
2023-02-09T13:15:54.830Z,13.30
2023-02-09T13:18:41.837Z,13.00
2023-02-09T13:21:32.837Z,14.90
2023-02-09T13:24:11.859Z,12.80
2023-02-09T13:26:57.436Z,13.70
2023-02-09T13:29:26.446Z,14.80
2023-02-09T13:31:59.563Z,15.20
2023-02-09T13:34:53.087Z,22.20
2023-02-09T13:37:26.378Z,16.60
2023-02-09T13:40:01.297Z,14.90
2023-02-09T13:42:31.356Z,15.90
2023-02-09T13:44:59.647Z,14.00
2023-02-09T13:47:27.994Z,11.30
2023-02-09T13:50:01.605Z,10.40
2023-02-09T13:52:36.893Z,11.00
2023-02-09T13:55:19.167Z,13.40
2023-02-09T13:58:02.263Z,13.30
2023-02-09T14:00:50.009Z,15.10
2023-02-09T14:05:53.703Z,13.40
2023-02-09T14:08:22.447Z,15.30
2023-02-09T14:11:03.274Z,14.80
2023-02-09T14:13:46.494Z,14.90
2023-02-09T14:16:15.853Z,14.60
2023-02-09T14:18:48.270Z,14.10
2023-02-09T14:21:24.082Z,14.20
2023-02-09T14:23:58.534Z,14.30
2023-02-09T14:26:42.372Z,15.20
2023-02-09T14:29:45.850Z,14.50
2023-02-09T14:32:36.030Z,15.30
2023-02-09T14:35:30.909Z,13.70
2023-02-09T14:38:01.385Z,13.70
2023-02-09T14:40:34.771Z,14.70
2023-02-09T14:43:27.447Z,12.80
2023-02-09T14:46:00.310Z,13.20
2023-02-09T14:48:29.577Z,13.30
2023-02-09T14:50:59.865Z,15.70
2023-02-09T14:53:31.668Z,15.80
2023-02-09T14:56:00.557Z,17.70
2023-02-09T14:58:30.168Z,17.90
2023-02-09T15:01:00.522Z,20.40
2023-02-09T15:03:29.117Z,17.50
2023-02-09T15:06:06.387Z,19.20
2023-02-09T15:08:36.194Z,16.60
2023-02-09T15:11:27.563Z,17.00
2023-02-09T15:13:58.122Z,19.80
2023-02-09T15:16:26.399Z,21.20
2023-02-09T15:18:54.658Z,20.00
2023-02-09T15:21:22.982Z,21.10
2023-02-09T15:23:51.289Z,17.20
2023-02-09T15:26:22.819Z,19.50
2023-02-09T15:28:50.930Z,20.70
2023-02-09T15:31:19.345Z,22.10
2023-02-09T15:33:47.713Z,21.40
2023-02-09T15:36:18.605Z,23.60
2023-02-09T15:38:47.129Z,21.60
2023-02-09T15:41:36.081Z,21.80
2023-02-09T15:44:29.775Z,25.90
2023-02-09T15:47:16.900Z,28.30
2023-02-09T15:49:45.078Z,32.80
2023-02-09T15:52:14.521Z,33.00
2023-02-09T15:54:42.791Z,36.40
2023-02-09T15:57:14.222Z,36.60
2023-02-09T15:59:42.801Z,41.90
2023-02-09T16:02:14.747Z,39.60
2023-02-09T16:04:43.256Z,35.80
2023-02-09T16:07:24.612Z,35.90
2023-02-09T16:09:52.746Z,38.10
2023-02-09T16:12:21.551Z,39.20
2023-02-09T16:14:50.695Z,40.90
2023-02-09T16:17:21.443Z,41.00
2023-02-09T16:19:49.567Z,41.90
2023-02-09T16:22:22.717Z,42.30
2023-02-09T16:24:52.031Z,44.30
2023-02-09T16:27:24.732Z,42.50
2023-02-09T16:29:52.863Z,42.00
2023-02-09T16:32:22.693Z,42.30
2023-02-09T16:34:51.282Z,41.90
2023-02-09T16:37:29.336Z,38.00
2023-02-09T16:39:58.418Z,42.80
2023-02-09T16:42:26.872Z,46.90
2023-02-09T16:44:56.881Z,45.40
2023-02-09T16:47:26.811Z,51.50
2023-02-09T16:50:05.984Z,49.60
2023-02-09T16:52:34.221Z,46.90
2023-02-09T16:55:05.690Z,46.60
2023-02-09T16:57:34.369Z,49.00
2023-02-09T17:00:02.869Z,46.80
2023-02-09T17:02:40.137Z,46.50
2023-02-09T17:05:32.089Z,45.30
2023-02-09T17:08:03.765Z,37.10
2023-02-09T17:10:34.349Z,37.80
2023-02-09T17:13:04.767Z,37.70
2023-02-09T17:15:39.482Z,36.30
2023-02-09T17:18:08.248Z,36.30
2023-02-09T17:20:42.236Z,33.70
2023-02-09T17:23:15.928Z,30.00
2023-02-09T17:25:45.216Z,35.80
2023-02-09T17:28:14.721Z,44.30
2023-02-09T17:30:43.082Z,51.50
2023-02-09T17:33:15.946Z,57.30
2023-02-09T17:36:17.729Z,59.20
2023-02-09T17:38:34.662Z,57.50
2023-02-09T17:41:05.709Z,66.50
2023-02-09T17:43:34.398Z,58.60
2023-02-09T17:46:05.426Z,65.30
2023-02-09T17:48:33.927Z,66.10
2023-02-09T17:51:02.854Z,72.80
2023-02-09T17:53:33.622Z,66.90
2023-02-09T17:56:02.716Z,71.30
2023-02-09T17:58:31.545Z,76.20
2023-02-09T18:00:59.976Z,77.20
2023-02-09T18:03:28.625Z,81.20
2023-02-09T18:05:58.801Z,76.00
2023-02-09T18:08:27.585Z,71.30
2023-02-09T18:10:58.833Z,70.40
2023-02-09T18:13:27.472Z,79.10
2023-02-09T18:15:56.612Z,85.40
2023-02-09T18:18:24.841Z,89.50
2023-02-09T18:20:53.145Z,84.60
2023-02-09T18:23:23.160Z,84.40
2023-02-09T18:25:51.384Z,87.80
2023-02-09T18:28:19.853Z,82.00
2023-02-09T18:30:48.712Z,65.00
2023-02-09T18:33:17.512Z,77.10
2023-02-09T18:35:46.264Z,71.70
2023-02-09T18:38:15.357Z,65.00
2023-02-09T18:40:43.692Z,59.20
2023-02-09T18:43:14.754Z,55.50
2023-02-09T18:45:43.103Z,55.70
2023-02-09T18:48:11.999Z,64.00
